METAR Data
IDs: Format: Raw Decoded Include TAF

Data at: 1930 UTC 31 Jul 2021

PTYA 311850Z 00000KT 12SM FEW016 BKN130 OVC300 25/24 A2977 RMK SLP083 T02450239